地図

経路データ

SID SEASON NUMBER BASIN SUBBASIN NAME ISO_TIME NATURE LAT LON WMO_WIND WMO_PRES WMO_AGENCY TRACK_TYPE DIST2LAND LANDFALL IFLAG USA_AGENCY USA_ATCF_ID USA_LAT USA_LON USA_RECORD USA_STATUS USA_WIND USA_PRES USA_SSHS USA_R34_NE USA_R34_SE USA_R34_SW USA_R34_NW USA_R50_NE USA_R50_SE USA_R50_SW USA_R50_NW USA_R64_NE USA_R64_SE USA_R64_SW USA_R64_NW USA_POCI USA_ROCI USA_RMW USA_EYE TOKYO_LAT TOKYO_LON TOKYO_GRADE TOKYO_WIND TOKYO_PRES TOKYO_R50_DIR TOKYO_R50_LONG TOKYO_R50_SHORT TOKYO_R30_DIR TOKYO_R30_LONG TOKYO_R30_SHORT TOKYO_LAND CMA_LAT CMA_LON CMA_CAT CMA_WIND CMA_PRES HKO_LAT HKO_LON HKO_CAT HKO_WIND HKO_PRES NEWDELHI_LAT NEWDELHI_LON NEWDELHI_GRADE NEWDELHI_WIND NEWDELHI_PRES NEWDELHI_CI NEWDELHI_DP NEWDELHI_POCI REUNION_LAT REUNION_LON REUNION_TYPE REUNION_WIND REUNION_PRES REUNION_TNUM REUNION_CI REUNION_RMW REUNION_R34_NE REUNION_R34_SE REUNION_R34_SW REUNION_R34_NW REUNION_R50_NE REUNION_R50_SE REUNION_R50_SW REUNION_R50_NW REUNION_R64_NE REUNION_R64_SE REUNION_R64_SW REUNION_R64_NW BOM_LAT BOM_LON BOM_TYPE BOM_WIND BOM_PRES BOM_TNUM BOM_CI BOM_RMW BOM_R34_NE BOM_R34_SE BOM_R34_SW BOM_R34_NW BOM_R50_NE BOM_R50_SE BOM_R50_SW BOM_R50_NW BOM_R64_NE BOM_R64_SE BOM_R64_SW BOM_R64_NW BOM_ROCI BOM_POCI BOM_EYE BOM_POS_METHOD BOM_PRES_METHOD NADI_LAT NADI_LON NADI_CAT NADI_WIND NADI_PRES WELLINGTON_LAT WELLINGTON_LON WELLINGTON_WIND WELLINGTON_PRES DS824_LAT DS824_LON DS824_STAGE DS824_WIND DS824_PRES TD9636_LAT TD9636_LON TD9636_STAGE TD9636_WIND TD9636_PRES TD9635_LAT TD9635_LON TD9635_WIND TD9635_PRES TD9635_ROCI NEUMANN_LAT NEUMANN_LON NEUMANN_CLASS NEUMANN_WIND NEUMANN_PRES MLC_LAT MLC_LON MLC_CLASS MLC_WIND MLC_PRES USA_GUST BOM_GUST BOM_GUST_PER REUNION_GUST REUNION_GUST_PER USA_SEAHGT USA_SEARAD_NE USA_SEARAD_SE USA_SEARAD_SW USA_SEARAD_NW STORM_SPEED STORM_DIR
1894259N09130 1894 40 WP MM NOT_NAMED 1894-09-15 16:00:00 NR 9.00000 130.000 main 401 310 __________O___ -1 9.00000 130.000 7 54 317
1894259N09130 1894 40 WP MM NOT_NAMED 1894-09-15 18:00:00 NR 10.3069 128.768 main 310 163 __________P___ -1 10.3069 128.768 7 52 317
1894259N09130 1894 40 WP MM NOT_NAMED 1894-09-15 21:00:00 NR 12.1642 126.966 main 163 97 __________P___ -1 12.1642 126.966 7 48 316
1894259N09130 1894 40 WP MM NOT_NAMED 1894-09-16 00:00:00 NR 13.7553 125.326 main 97 54 __________P___ -1 13.7553 125.326 7 40 314
1894259N09130 1894 40 WP MM NOT_NAMED 1894-09-16 03:00:00 NR 14.9275 123.968 main 101 114 __________P___ -1 14.9275 123.968 7 33 311
1894259N09130 1894 40 WP MM NOT_NAMED 1894-09-16 04:00:00 NR 15.2000 123.600 main 134 108 __________O___ -1 15.2000 123.600 4 22 304
1894259N09130 1894 40 WP MM NOT_NAMED 1894-09-16 06:00:00 NR 15.5532 123.004 main 108 54 __________P___ -1 15.5532 123.004 4 15 294
1894259N09130 1894 40 WP MM NOT_NAMED 1894-09-16 09:00:00 NR 15.7042 122.397 main 54 39 __________P___ -1 15.7042 122.397 4 10 271
1894259N09130 1894 40 WP MM NOT_NAMED 1894-09-16 12:00:00 NR 15.5748 122.011 main 44 24 __________P___ -1 15.5748 122.011 4 8 242
1894259N09130 1894 40 WP MM NOT_NAMED 1894-09-16 15:00:00 NR 15.3583 121.707 main 24 21 __________P___ -1 15.3583 121.707 4 7 235
1894259N09130 1894 40 WP MM NOT_NAMED 1894-09-16 16:00:00 NR 15.3000 121.600 main 21 0 __________O___ -1 15.3000 121.600 4 8 265
1894259N09130 1894 40 WP MM NOT_NAMED 1894-09-16 18:00:00 NR 15.3226 121.272 main 0 0 __________P___ -1 15.3226 121.272 4 9 275
1894259N09130 1894 40 WP MM NOT_NAMED 1894-09-16 21:00:00 NR 15.3691 120.787 main 0 0 __________P___ -1 15.3691 120.787 4 9 277
1894259N09130 1894 40 WP MM NOT_NAMED 1894-09-17 00:00:00 NR 15.4415 120.312 main 0 0 __________P___ -1 15.4415 120.312 4 9 281
1894259N09130 1894 40 WP MM NOT_NAMED 1894-09-17 03:00:00 NR 15.5523 119.850 main 10 15 __________P___ -1 15.5523 119.850 4 9 285
1894259N09130 1894 40 WP MM NOT_NAMED 1894-09-17 04:00:00 NR 15.6000 119.700 main 24 24 __________O___ -1 15.6000 119.700 4 9 290
1894259N09130 1894 40 WP MM NOT_NAMED 1894-09-17 06:00:00 NR 15.7104 119.392 main 46 46 __________P___ -1 15.7104 119.392 4 10 293
1894259N09130 1894 40 WP MM NOT_NAMED 1894-09-17 09:00:00 NR 15.9138 118.943 main 86 85 __________P___ -1 15.9138 118.943 4 10 298
1894259N09130 1894 40 WP MM NOT_NAMED 1894-09-17 12:00:00 NR 16.1515 118.516 main 130 130 __________P___ -1 16.1515 118.516 4 9 302
1894259N09130 1894 40 WP MM NOT_NAMED 1894-09-17 15:00:00 NR 16.4109 118.122 main 176 176 __________P___ -1 16.4109 118.122 4 9 305
1894259N09130 1894 40 WP MM NOT_NAMED 1894-09-17 16:00:00 NR 16.5000 118.000 main 189 189 __________O___ -1 16.5000 118.000 4 8 310
1894259N09130 1894 40 WP MM NOT_NAMED 1894-09-17 18:00:00 NR 16.6686 117.800 main 217 217 __________P___ -1 16.6686 117.800 4 8 314
1894259N09130 1894 40 WP MM NOT_NAMED 1894-09-17 21:00:00 NR 16.9344 117.532 main 254 254 __________P___ -1 16.9344 117.532 4 8 317
1894259N09130 1894 40 WP MM NOT_NAMED 1894-09-18 00:00:00 NR 17.2132 117.258 main 284 294 __________P___ -1 17.2132 117.258 4 8 315
1894259N09130 1894 40 WP MM NOT_NAMED 1894-09-18 03:00:00 NR 17.5020 116.930 main 336 336 __________P___ -1 17.5020 116.930 4 9 311
1894259N09130 1894 40 WP MM NOT_NAMED 1894-09-18 04:00:00 NR 17.6000 116.800 main 350 350 __________O___ -1 17.6000 116.800 4 10 304
1894259N09130 1894 40 WP MM NOT_NAMED 1894-09-18 06:00:00 NR 17.7945 116.482 main 388 388 __________P___ -1 17.7945 116.482 4 12 301
1894259N09130 1894 40 WP MM NOT_NAMED 1894-09-18 09:00:00 NR 18.0925 115.936 main 460 448 __________P___ -1 18.0925 115.936 4 12 299
1894259N09130 1894 40 WP MM NOT_NAMED 1894-09-18 12:00:00 NR 18.3949 115.334 main 448 399 __________P___ -1 18.3949 115.334 4 13 297
1894259N09130 1894 40 WP MM NOT_NAMED 1894-09-18 15:00:00 NR 18.6988 114.708 main 399 378 __________P___ -1 18.6988 114.708 4 13 297
1894259N09130 1894 40 WP MM NOT_NAMED 1894-09-18 16:00:00 NR 18.8000 114.500 main 378 332 __________O___ -1 18.8000 114.500 4 13 298
1894259N09130 1894 40 WP MM NOT_NAMED 1894-09-18 18:00:00 NR 18.9997 114.103 main 332 264 __________P___ -1 18.9997 114.103 4 13 298
1894259N09130 1894 40 WP MM NOT_NAMED 1894-09-18 21:00:00 NR 19.2995 113.501 main 264 199 __________P___ -1 19.2995 113.501 4 13 298
1894259N09130 1894 40 WP MM NOT_NAMED 1894-09-19 00:00:00 NR 19.5996 112.897 main 199 140 __________P___ -1 19.5996 112.897 4 13 298
1894259N09130 1894 40 WP MM NOT_NAMED 1894-09-19 03:00:00 NR 19.8998 112.298 main 140 123 __________P___ -1 19.8998 112.298 4 13 298
1894259N09130 1894 40 WP MM NOT_NAMED 1894-09-19 04:00:00 NR 20.0000 112.100 main 123 90 __________O___ -1 20.0000 112.100 4 13 298
1894259N09130 1894 40 WP MM NOT_NAMED 1894-09-19 06:00:00 NR 20.1916 111.710 main 90 61 __________P___ -1 20.1916 111.710 4 12 298
1894259N09130 1894 40 WP MM NOT_NAMED 1894-09-19 09:00:00 NR 20.4793 111.132 main 61 20 __________P___ -1 20.4793 111.132 4 12 298
1894259N09130 1894 40 WP MM NOT_NAMED 1894-09-19 12:00:00 NR 20.7755 110.560 main 23 0 __________P___ -1 20.7755 110.560 4 12 300
1894259N09130 1894 40 WP MM NOT_NAMED 1894-09-19 15:00:00 NR 21.0897 109.990 main 0 0 __________P___ -1 21.0897 109.990 4 12 301
1894259N09130 1894 40 WP MM NOT_NAMED 1894-09-19 16:00:00 NR 21.2000 109.800 main 0 0 __________O___ -1 21.2000 109.800 4 13 303
1894259N09130 1894 40 WP MM NOT_NAMED 1894-09-19 18:00:00 NR 21.4303 109.420 main 10 0 __________P___ -1 21.4303 109.420 4 13 304
1894259N09130 1894 40 WP MM NOT_NAMED 1894-09-19 21:00:00 NR 21.7957 108.847 main 0 0 __________P___ -1 21.7957 108.847 4 13 305
1894259N09130 1894 40 WP MM NOT_NAMED 1894-09-20 00:00:00 NR 22.1780 108.272 main 0 0 __________P___ -1 22.1780 108.272 4 13 306
1894259N09130 1894 40 WP MM NOT_NAMED 1894-09-20 03:00:00 NR 22.5691 107.693 main 0 0 __________P___ -1 22.5691 107.693 4 13 306
1894259N09130 1894 40 WP MM NOT_NAMED 1894-09-20 04:00:00 NR 22.7000 107.500 main 0 __________O___ -1 22.7000 107.500 4 13 306

デジタル台風データ・検索

IBTrACS Databaseについて

本データベースは、米国NOAAが公開する1842年以降の世界の熱帯低気圧のベストトラックデータアーカイブInternational Best Track Archive for Climate Stewardship (IBTrACS)を、ウェブで閲覧しやすい形式に変換したものです。

最終更新日:2021-10-21